KHBV

Jim Hogg County Airport

Hebbronville, Texas, USA
METAR KHBV 200055Z AUTO 15006KT 10SM OVC009 10/08 A3010 RMK AO2 T00950078
Observed Flight Rules
Jan-20 @ 00:55 UTC (23 minutes ago) Instrument Flight Rules
Wind Visibility Clouds
150° at 6 knots 10 miles
  • Overcast at 900' AGL
Temperatures Readings
Current 10°C / 50°F
Dewpoint 8°C / 46°F
Humidity 88%
Altimeter 30.1" Hg
Pressure 1019 hPa
Elevation 202
METAR KHBV 200055Z AUTO 15006KT 10SM OVC009 10/08 A3010 RMK AO2 T00950078
Observed Flight Rules
Jan-20 @ 00:55 UTC
(23 minutes ago)
IFR
Wind Visibility
150° at 6 knots 10 miles
Clouds
  • Overcast at 900' AGL
Temperature Dewpoint
10°C / 50°F 8°C / 46°F
Humidity Altimeter Pressure
88% 30.1" Hg 1019 hPa